^^
Station Historical Data
 
Daily Summary for September 21, 2017 Units:  Metric    English   Both
« Previous Day
Next Day »
Daily Weekly Monthly Yearly Custom
  Current: High: Low: Average:
Temperature: 12.8 °C 13.7 °C 11.6 °C 12.8 °C
Dew Point: 8.9 °C 12.9 °C 8.4 °C 10.2 °C
Humidity: 77% 95% 72% 85%
Wind Speed: 15.0km/h 31.5km/h 0.0km/h 7.7km/h
Wind Gust: 15.0km/h 31.5km/h - -
WindNW - - East
Pressure: 1025.6 hPa 1026.6 hPa 1020.5 hPa -
Precipitation: 4.1 mm      
Historical Graphs
 
 
Tabular Data for September 21, 2017
Time Temperature Dew Point Pressure Wind Wind Speed Wind Gust Humidity Rainfall Rate (Hourly) solar Conditions
00:04 12.9 °C 11.9 °C 1020.5 hPa Calm     94% 0.0 mm WeatherDisplay:10.37 W/m2 CLR
00:09 12.9 °C 11.9 °C 1020.5 hPa Calm     94% 0.0 mm WeatherDisplay:10.37 W/m2 CLR
00:14 12.9 °C 11.9 °C 1020.5 hPa Calm     94% 0.0 mm WeatherDisplay:10.37 W/m2 CLR
00:19 12.9 °C 11.9 °C 1020.5 hPa Calm     94% 0.0 mm WeatherDisplay:10.37 W/m2 CLR
00:24 12.9 °C 11.9 °C 1020.5 hPa Calm     94% 0.0 mm WeatherDisplay:10.37 W/m2 CLR
00:29 12.9 °C 11.9 °C 1020.5 hPa Calm     94% 0.0 mm WeatherDisplay:10.37 W/m2 CLR
00:34 12.9 °C 11.9 °C 1020.5 hPa Calm     94% 0.0 mm WeatherDisplay:10.37 W/m2 CLR
00:39 12.9 °C 11.9 °C 1020.5 hPa Calm     94% 0.0 mm WeatherDisplay:10.37 W/m2 CLR
00:44 12.9 °C 11.9 °C 1020.5 hPa Calm     94% 0.0 mm WeatherDisplay:10.37 W/m2 CLR
00:49 12.8 °C 11.8 °C 1020.5 hPa Calm     94% 0.0 mm WeatherDisplay:10.37 W/m2 CLR
00:55 12.8 °C 11.8 °C 1021.6 hPa Calm     94% 0.0 mm WeatherDisplay:10.37 W/m2 CLR
01:00 12.9 °C 11.9 °C 1021.6 hPa Calm     94% 0.0 mm WeatherDisplay:10.37 W/m2 CLR
01:05 12.8 °C 11.8 °C 1021.6 hPa Calm     94% 0.0 mm WeatherDisplay:10.37 W/m2 CLR
01:10 12.8 °C 11.8 °C 1021.6 hPa Calm     94% 0.0 mm WeatherDisplay:10.37 W/m2 CLR
01:15 12.8 °C 11.8 °C 1021.6 hPa Calm     94% 0.0 mm WeatherDisplay:10.37 W/m2 CLR
01:20 12.8 °C 11.8 °C 1021.6 hPa Calm     94% 0.0 mm WeatherDisplay:10.37 W/m2 CLR
01:25 12.8 °C 11.8 °C 1022.6 hPa Calm     94% 0.0 mm WeatherDisplay:10.37 W/m2 CLR
01:30 12.8 °C 11.8 °C 1022.6 hPa Calm     94% 0.0 mm WeatherDisplay:10.37 W/m2 CLR
01:35 12.8 °C 11.8 °C 1022.6 hPa Calm     94% 0.0 mm WeatherDisplay:10.37 W/m2 CLR
01:40 12.8 °C 11.8 °C 1022.6 hPa Calm     94% 0.0 mm WeatherDisplay:10.37 W/m2 CLR
01:45 12.8 °C 11.8 °C 1022.6 hPa Calm     94% 0.0 mm WeatherDisplay:10.37 W/m2 CLR
01:50 12.8 °C 11.8 °C 1022.6 hPa Calm     94% 0.0 mm WeatherDisplay:10.37 W/m2 CLR
01:55 12.8 °C 11.8 °C 1022.6 hPa Calm     94% 0.0 mm WeatherDisplay:10.37 W/m2 CLR
02:00 12.8 °C 11.8 °C 1022.6 hPa Calm     94% 0.0 mm WeatherDisplay:10.37 W/m2 CLR
02:05 12.8 °C 11.8 °C 1022.6 hPa Calm     94% 0.0 mm WeatherDisplay:10.37 W/m2 CLR
02:10 12.8 °C 11.8 °C 1022.6 hPa Calm     94% 0.0 mm WeatherDisplay:10.37 W/m2 CLR
02:15 12.8 °C 11.8 °C 1022.6 hPa Calm     94% 0.0 mm WeatherDisplay:10.37 W/m2 CLR
02:20 12.9 °C 11.9 °C 1022.6 hPa Calm     94% 0.0 mm WeatherDisplay:10.37 W/m2 CLR
02:25 12.9 °C 12.1 °C 1022.6 hPa Calm     95% 0.0 mm WeatherDisplay:10.37 W/m2 CLR
02:30 12.9 °C 12.1 °C 1022.6 hPa Calm     95% 0.0 mm WeatherDisplay:10.37 W/m2 CLR
02:35 12.9 °C 12.1 °C 1022.6 hPa Calm     95% 0.0 mm WeatherDisplay:10.37 W/m2 CLR
02:40 13.0 °C 12.2 °C 1021.6 hPa Calm     95% 0.0 mm WeatherDisplay:10.37 W/m2 CLR
02:45 13.0 °C 12.2 °C 1021.6 hPa Calm     95% 0.0 mm WeatherDisplay:10.37 W/m2 CLR
02:50 13.0 °C 12.2 °C 1021.6 hPa Calm     95% 0.0 mm WeatherDisplay:10.37 W/m2 CLR
02:55 13.0 °C 12.2 °C 1022.6 hPa Calm     95% 0.0 mm WeatherDisplay:10.37 W/m2 CLR
03:00 13.0 °C 12.2 °C 1022.6 hPa NW 1.9 km/h   95% 0.0 mm WeatherDisplay:10.37 W/m2 CLR
03:05 13.0 °C 12.2 °C 1022.6 hPa Calm     95% 0.0 mm WeatherDisplay:10.37 W/m2 CLR
03:10 13.0 °C 12.2 °C 1022.6 hPa Calm     95% 0.0 mm WeatherDisplay:10.37 W/m2 CLR
03:15 13.0 °C 12.2 °C 1022.6 hPa Calm     95% 0.0 mm WeatherDisplay:10.37 W/m2 CLR
03:20 13.0 °C 12.2 °C 1022.6 hPa Calm     95% 0.0 mm WeatherDisplay:10.37 W/m2 CLR
03:25 13.0 °C 12.2 °C 1022.6 hPa Calm     95% 0.0 mm WeatherDisplay:10.37 W/m2 CLR
03:30 13.0 °C 12.2 °C 1022.6 hPa NNW 2.3 km/h   95% 0.0 mm WeatherDisplay:10.37 W/m2 CLR
03:35 13.0 °C 12.2 °C 1022.6 hPa Calm     95% 0.0 mm WeatherDisplay:10.37 W/m2 CLR
03:40 13.0 °C 12.2 °C 1023.6 hPa NNE 1.9 km/h   95% 0.0 mm WeatherDisplay:10.37 W/m2 CLR
03:45 13.1 °C 12.3 °C 1023.6 hPa Calm     95% 0.0 mm WeatherDisplay:10.37 W/m2 CLR
03:50 13.2 °C 12.4 °C 1023.6 hPa NW 2.3 km/h   95% 0.0 mm WeatherDisplay:10.37 W/m2 CLR
03:55 13.2 °C 12.4 °C 1023.6 hPa NNE 1.9 km/h   95% 0.0 mm WeatherDisplay:10.37 W/m2 CLR
04:00 13.2 °C 12.4 °C 1023.6 hPa Calm     95% 0.0 mm WeatherDisplay:10.37 W/m2 CLR
04:05 13.3 °C 12.5 °C 1023.6 hPa NNW 5.6 km/h 5.6 km/h 95% 0.0 mm WeatherDisplay:10.37 W/m2 CLR
04:10 13.4 °C 12.6 °C 1023.6 hPa ENE 5.6 km/h 5.6 km/h 95% 0.0 mm WeatherDisplay:10.37 W/m2 CLR
04:15 13.5 °C 12.7 °C 1023.6 hPa Calm     95% 0.0 mm WeatherDisplay:10.37 W/m2 CLR
04:20 13.5 °C 12.7 °C 1023.6 hPa Calm   2.4 km/h 95% 0.0 mm WeatherDisplay:10.37 W/m2 CLR
04:25 13.5 °C 12.7 °C 1023.6 hPa Calm     95% 0.0 mm WeatherDisplay:10.37 W/m2 CLR
04:30 13.5 °C 12.7 °C 1023.6 hPa Calm     95% 0.0 mm WeatherDisplay:10.37 W/m2 CLR
04:35 13.5 °C 12.7 °C 1023.6 hPa Calm     95% 0.0 mm WeatherDisplay:10.37 W/m2 CLR
04:40 13.5 °C 12.7 °C 1023.6 hPa Calm     95% 0.0 mm WeatherDisplay:10.37 W/m2 CLR
04:45 13.4 °C 12.6 °C 1023.6 hPa Calm     95% 0.0 mm WeatherDisplay:10.37 W/m2 CLR
04:50 13.5 °C 12.7 °C 1023.6 hPa SSW 2.3 km/h   95% 0.0 mm WeatherDisplay:10.37 W/m2 CLR
05:00 13.6 °C 12.8 °C 1023.6 hPa ENE 11.1 km/h   95% 0.0 mm WeatherDisplay:10.37 W/m2 CLR
05:05 13.7 °C 12.9 °C 1023.6 hPa East 5.6 km/h 5.6 km/h 95% 0.0 mm WeatherDisplay:10.37 W/m2 CLR
05:10 13.7 °C 12.9 °C 1023.6 hPa SW 8.0 km/h 8.0 km/h 95% 0.0 mm WeatherDisplay:10.37 W/m2 CLR
05:15 13.7 °C 12.9 °C 1023.6 hPa WSW 9.7 km/h 9.7 km/h 95% 0.0 mm WeatherDisplay:10.37 W/m2 CLR
05:16 13.7 °C 12.9 °C 1023.6 hPa SSW 9.3 km/h 9.3 km/h 95% 0.0 mm WeatherDisplay:10.37 W/m2 CLR
05:18 13.7 °C 12.9 °C 1023.6 hPa NE 3.7 km/h 3.7 km/h 95% 0.0 mm WeatherDisplay:10.37 W/m2 CLR
05:19 13.7 °C 12.9 °C 1023.6 hPa Calm     95% 0.0 mm WeatherDisplay:10.37 W/m2 CLR
05:21 13.7 °C 12.9 °C 1023.6 hPa Calm     95% 0.0 mm WeatherDisplay:10.37 W/m2 CLR
05:26 13.7 °C 12.9 °C 1023.6 hPa ENE 7.4 km/h 7.4 km/h 95% 0.0 mm WeatherDisplay:10.37 W/m2 CLR
05:29 13.7 °C 12.9 °C 1023.6 hPa NE 2.3 km/h   95% 0.0 mm WeatherDisplay:10.37 W/m2 CLR
05:34 13.7 °C 12.9 °C 1023.6 hPa NW 3.7 km/h 5.6 km/h 95% 0.0 mm WeatherDisplay:10.37 W/m2 CLR
05:39 13.5 °C 12.6 °C 1023.6 hPa NNW 9.3 km/h   94% 0.0 mm WeatherDisplay:10.37 W/m2 CLR
05:44 13.5 °C 12.6 °C 1023.6 hPa Calm     94% 0.0 mm WeatherDisplay:10.37 W/m2 CLR
05:49 13.4 °C 12.4 °C 1023.6 hPa NE 7.4 km/h 7.4 km/h 94% 0.0 mm WeatherDisplay:10.37 W/m2 CLR
05:54 13.3 °C 12.3 °C 1023.6 hPa ENE 3.7 km/h   94% 0.0 mm WeatherDisplay:10.37 W/m2 CLR
05:59 13.2 °C 12.3 °C 1023.6 hPa NE 5.6 km/h 5.6 km/h 94% 0.0 mm WeatherDisplay:10.37 W/m2 CLR
06:04 13.1 °C 12.0 °C 1023.6 hPa NNE 5.6 km/h 5.6 km/h 93% 0.0 mm WeatherDisplay:10.37 W/m2 CLR
06:09 12.9 °C 11.8 °C 1023.6 hPa NE 13.0 km/h 13.0 km/h 93% 0.0 mm WeatherDisplay:10.37 W/m2 CLR
06:14 12.6 °C 11.3 °C 1023.6 hPa NE 7.4 km/h 8.0 km/h 92% 0.0 mm WeatherDisplay:10.37 W/m2 CLR
06:19 12.5 °C 11.2 °C 1023.6 hPa East 11.1 km/h 11.1 km/h 92% 0.0 mm WeatherDisplay:10.37 W/m2 CLR
06:24 12.4 °C 10.9 °C 1023.6 hPa North 7.4 km/h 7.4 km/h 91% 0.0 mm WeatherDisplay:10.37 W/m2 CLR
06:29 12.3 °C 10.9 °C 1023.6 hPa North 9.2 km/h 9.2 km/h 91% 0.0 mm WeatherDisplay:10.37 W/m2 CLR
06:34 12.1 °C 10.5 °C 1023.6 hPa East 14.8 km/h 14.8 km/h 90% 0.0 mm WeatherDisplay:10.37 W/m2 CLR
06:39 12.1 °C 10.3 °C 1023.6 hPa ENE 3.7 km/h 3.7 km/h 89% 0.0 mm WeatherDisplay:10.37 W/m2 CLR
06:44 12.0 °C 10.1 °C 1023.6 hPa NNE 9.3 km/h   88% 0.0 mm WeatherDisplay:10.37 W/m2 CLR
06:49 11.9 °C 10.0 °C 1023.6 hPa East 14.8 km/h 14.8 km/h 88% 0.0 mm WeatherDisplay:10.37 W/m2 CLR
06:54 11.9 °C 10.0 °C 1023.6 hPa East 11.1 km/h 11.1 km/h 88% 0.0 mm WeatherDisplay:10.37 W/m2 CLR
06:59 11.9 °C 9.8 °C 1023.6 hPa NE 9.3 km/h   87% 0.0 mm WeatherDisplay:10.37 W/m2 CLR
07:04 11.8 °C 9.6 °C 1023.6 hPa NE 13.0 km/h 13.0 km/h 86% 0.0 mm WeatherDisplay:10.37 W/m2 CLR
07:09 11.8 °C 9.3 °C 1024.6 hPa NE 5.6 km/h   85% 0.0 mm WeatherDisplay:10.37 W/m2 CLR
07:14 11.7 °C 9.3 °C 1024.6 hPa North 18.2 km/h 18.2 km/h 85% 0.0 mm WeatherDisplay:10.37 W/m2 CLR
07:19 11.8 °C 9.2 °C 1024.6 hPa East 18.5 km/h 18.5 km/h 84% 0.0 mm WeatherDisplay:10.37 W/m2 CLR
07:24 11.7 °C 9.1 °C 1024.6 hPa ENE 9.3 km/h 9.3 km/h 84% 0.0 mm WeatherDisplay:10.37 W/m2 CLR
07:29 11.7 °C 9.1 °C 1024.6 hPa NE 11.1 km/h 11.1 km/h 84% 0.0 mm WeatherDisplay:10.37 W/m2 CLR
07:34 11.7 °C 9.1 °C 1024.6 hPa SW 11.1 km/h 11.1 km/h 84% 0.0 mm WeatherDisplay:10.37 W/m2 CLR
07:39 11.6 °C 9.0 °C 1024.6 hPa ENE 13.0 km/h 13.0 km/h 84% 0.0 mm WeatherDisplay:10.37 W/m2 CLR
07:44 11.6 °C 9.0 °C 1024.6 hPa NW 14.8 km/h 14.8 km/h 84% 0.0 mm WeatherDisplay:10.37 W/m2 CLR
07:49 11.7 °C 9.3 °C 1024.6 hPa East 7.4 km/h   85% 0.0 mm WeatherDisplay:10.37 W/m2 CLR
07:54 11.7 °C 9.3 °C 1024.6 hPa ENE 20.9 km/h 20.9 km/h 85% 0.0 mm WeatherDisplay:10.37 W/m2 CLR
07:59 11.7 °C 9.1 °C 1024.6 hPa East 13.0 km/h 13.0 km/h 84% 0.0 mm WeatherDisplay:10.37 W/m2 RA
08:05 11.7 °C 9.3 °C 1024.6 hPa NE 5.8 km/h 5.8 km/h 85% 1.0 mm WeatherDisplay:10.37 W/m2 RA
08:10 11.7 °C 9.3 °C 1024.6 hPa East 11.9 km/h 11.9 km/h 85% 1.0 mm WeatherDisplay:10.37 W/m2 RA
08:15 11.7 °C 9.3 °C 1024.6 hPa ENE 14.8 km/h 14.8 km/h 85% 1.0 mm WeatherDisplay:10.37 W/m2
08:20 11.7 °C 9.3 °C 1024.6 hPa NE 4.7 km/h   85% 1.0 mm WeatherDisplay:10.37 W/m2 CLR
08:25 11.7 °C 9.3 °C 1024.6 hPa NE 7.4 km/h 7.4 km/h 85% 1.0 mm WeatherDisplay:10.37 W/m2 CLR
08:30 11.7 °C 9.3 °C 1024.6 hPa East 6.3 km/h 6.3 km/h 85% 1.0 mm WeatherDisplay:10.37 W/m2 CLR
08:35 11.7 °C 9.3 °C 1024.6 hPa East 11.1 km/h 11.1 km/h 85% 1.0 mm WeatherDisplay:10.37 W/m2 CLR
08:40 11.9 °C 9.4 °C 1023.6 hPa NNE 11.1 km/h 11.1 km/h 85% 1.0 mm WeatherDisplay:10.37 W/m2 CLR
08:45 11.9 °C 9.4 °C 1023.6 hPa ENE 3.7 km/h 3.7 km/h 85% 1.0 mm WeatherDisplay:10.37 W/m2 CLR
08:50 12.0 °C 9.6 °C 1023.6 hPa NE 9.3 km/h   85% 1.0 mm WeatherDisplay:10.37 W/m2 CLR
08:55 12.0 °C 9.6 °C 1023.6 hPa NE 5.6 km/h 5.6 km/h 85% 1.0 mm WeatherDisplay:10.37 W/m2 CLR
09:00 12.0 °C 9.6 °C 1023.6 hPa NE 9.3 km/h 9.3 km/h 85% 1.0 mm WeatherDisplay:10.37 W/m2 CLR
09:05 12.0 °C 9.6 °C 1023.6 hPa Calm   5.6 km/h 85% 0.0 mm WeatherDisplay:10.37 W/m2 CLR
09:10 12.0 °C 9.6 °C 1024.6 hPa NE 9.3 km/h 9.3 km/h 85% 0.0 mm WeatherDisplay:10.37 W/m2 CLR
09:15 12.0 °C 9.6 °C 1024.6 hPa NW 7.4 km/h 7.4 km/h 85% 0.0 mm WeatherDisplay:10.37 W/m2 CLR
09:20 12.0 °C 9.6 °C 1024.6 hPa ENE 6.9 km/h   85% 0.0 mm WeatherDisplay:10.37 W/m2 CLR
09:25 12.0 °C 9.4 °C 1025.6 hPa ENE 13.0 km/h 13.0 km/h 84% 0.0 mm WeatherDisplay:10.37 W/m2 CLR
09:30 12.1 °C 9.5 °C 1025.6 hPa North 9.3 km/h 9.3 km/h 84% 0.0 mm WeatherDisplay:10.37 W/m2 CLR
09:35 12.1 °C 9.5 °C 1025.6 hPa East 9.3 km/h 9.3 km/h 84% 0.0 mm WeatherDisplay:10.37 W/m2 CLR
09:40 12.0 °C 9.2 °C 1024.6 hPa ENE 14.8 km/h 14.8 km/h 83% 0.0 mm WeatherDisplay:10.37 W/m2 CLR
09:45 12.1 °C 9.3 °C 1024.6 hPa SSE 9.3 km/h 9.3 km/h 83% 0.0 mm WeatherDisplay:10.37 W/m2 CLR
09:50 12.1 °C 9.3 °C 1024.6 hPa NNE 11.1 km/h 11.1 km/h 83% 0.0 mm WeatherDisplay:10.37 W/m2 CLR
09:55 12.1 °C 9.3 °C 1024.6 hPa Calm   2.4 km/h 83% 0.0 mm WeatherDisplay:10.37 W/m2 CLR
10:00 12.1 °C 9.3 °C 1024.6 hPa NE 9.3 km/h 9.3 km/h 83% 0.0 mm WeatherDisplay:10.37 W/m2 CLR
10:05 12.1 °C 9.5 °C 1024.6 hPa North 3.7 km/h   84% 0.0 mm WeatherDisplay:10.37 W/m2 CLR
10:10 12.1 °C 9.5 °C 1023.6 hPa WNW 7.4 km/h 7.4 km/h 84% 0.0 mm WeatherDisplay:10.37 W/m2 CLR
10:15 12.1 °C 9.3 °C 1023.6 hPa East 11.1 km/h 11.1 km/h 83% 1.0 mm WeatherDisplay:10.37 W/m2 RA
10:20 12.0 °C 9.2 °C 1023.6 hPa ENE 9.3 km/h 9.3 km/h 83% 1.0 mm WeatherDisplay:10.37 W/m2 RA
10:25 12.1 °C 9.3 °C 1024.6 hPa NW 1.9 km/h 2.4 km/h 83% 1.0 mm WeatherDisplay:10.37 W/m2
10:30 12.1 °C 9.3 °C 1024.6 hPa North 2.3 km/h   83% 1.0 mm WeatherDisplay:10.37 W/m2
10:35 12.0 °C 9.2 °C 1024.6 hPa West 9.3 km/h 9.3 km/h 83% 1.0 mm WeatherDisplay:10.37 W/m2 CLR
10:40 12.0 °C 9.4 °C 1024.6 hPa NE 1.9 km/h   84% 1.0 mm WeatherDisplay:10.37 W/m2 CLR
10:45 12.0 °C 9.4 °C 1024.6 hPa NNW 3.4 km/h   84% 1.0 mm WeatherDisplay:10.37 W/m2 CLR
10:50 12.0 °C 9.4 °C 1024.6 hPa ENE 9.3 km/h 9.3 km/h 84% 1.0 mm WeatherDisplay:10.37 W/m2 CLR
10:55 12.1 °C 9.5 °C 1024.6 hPa NW 7.4 km/h 7.4 km/h 84% 1.0 mm WeatherDisplay:10.37 W/m2 CLR
11:00 12.1 °C 9.7 °C 1024.6 hPa ENE 5.8 km/h 5.8 km/h 85% 2.0 mm WeatherDisplay:10.37 W/m2 RA
11:05 12.2 °C 9.8 °C 1024.6 hPa Calm     85% 2.0 mm WeatherDisplay:10.37 W/m2 RA
11:10 12.3 °C 9.8 °C 1024.6 hPa NE 9.3 km/h 9.3 km/h 85% 2.0 mm WeatherDisplay:10.37 W/m2
11:15 12.3 °C 9.8 °C 1024.6 hPa NE 7.4 km/h 7.4 km/h 85% 1.0 mm WeatherDisplay:10.37 W/m2 CLR
11:20 12.5 °C 10.1 °C 1024.6 hPa Calm     85% 1.0 mm WeatherDisplay:10.37 W/m2 CLR
11:25 12.5 °C 10.1 °C 1024.6 hPa ENE 7.4 km/h 7.4 km/h 85% 1.0 mm WeatherDisplay:10.37 W/m2 CLR
11:30 12.4 °C 9.9 °C 1024.6 hPa NNE 9.3 km/h 9.3 km/h 85% 1.0 mm WeatherDisplay:10.37 W/m2 CLR
11:35 12.4 °C 9.9 °C 1024.6 hPa ENE 5.6 km/h 5.6 km/h 85% 1.0 mm WeatherDisplay:10.37 W/m2 CLR
11:40 12.4 °C 9.9 °C 1025.6 hPa NE 7.4 km/h 7.4 km/h 85% 1.0 mm WeatherDisplay:10.37 W/m2 CLR
11:45 12.5 °C 10.1 °C 1025.6 hPa Calm     85% 1.0 mm WeatherDisplay:10.37 W/m2 CLR
11:50 12.5 °C 10.1 °C 1025.6 hPa NE 9.7 km/h 9.7 km/h 85% 1.0 mm WeatherDisplay:10.37 W/m2 CLR
11:55 12.5 °C 9.9 °C 1024.6 hPa ENE 7.4 km/h 7.4 km/h 84% 1.0 mm WeatherDisplay:10.37 W/m2 CLR
12:00 12.6 °C 9.9 °C 1024.6 hPa ENE 8.0 km/h 8.0 km/h 84% 0.0 mm WeatherDisplay:10.37 W/m2 CLR
12:05 12.5 °C 9.5 °C 1024.6 hPa North 20.4 km/h 20.4 km/h 82% 0.0 mm WeatherDisplay:10.37 W/m2 CLR
12:10 12.6 °C 9.8 °C 1024.6 hPa NNE 9.3 km/h   83% 0.0 mm WeatherDisplay:10.37 W/m2 CLR
12:15 12.8 °C 9.8 °C 1024.6 hPa Calm     82% 0.0 mm WeatherDisplay:10.37 W/m2 CLR
12:20 12.7 °C 9.7 °C 1024.6 hPa North 14.8 km/h 14.8 km/h 82% 0.0 mm WeatherDisplay:10.37 W/m2 CLR
12:25 12.8 °C 9.6 °C 1023.6 hPa ENE 13.5 km/h 13.5 km/h 81% 0.0 mm WeatherDisplay:10.37 W/m2 CLR
12:30 12.8 °C 9.2 °C 1023.6 hPa NNW 13.5 km/h 13.5 km/h 79% 0.0 mm WeatherDisplay:10.37 W/m2 CLR
12:35 12.8 °C 9.1 °C 1023.6 hPa NNE 14.8 km/h 14.8 km/h 78% 0.0 mm WeatherDisplay:10.37 W/m2 CLR
12:40 12.8 °C 9.1 °C 1024.6 hPa East 5.6 km/h 5.6 km/h 78% 0.0 mm WeatherDisplay:10.37 W/m2 CLR
12:45 12.8 °C 9.1 °C 1024.6 hPa ENE 9.3 km/h 9.3 km/h 78% 0.0 mm WeatherDisplay:10.37 W/m2 CLR
12:50 12.8 °C 8.9 °C 1024.6 hPa East 14.8 km/h 14.8 km/h 77% 0.0 mm WeatherDisplay:10.37 W/m2 CLR
12:55 13.0 °C 8.9 °C 1024.6 hPa NNE 13.0 km/h 13.0 km/h 76% 0.0 mm WeatherDisplay:10.37 W/m2 CLR
13:00 13.0 °C 8.9 °C 1024.6 hPa North 9.3 km/h 9.3 km/h 76% 0.0 mm WeatherDisplay:10.37 W/m2 CLR
13:05 13.0 °C 8.9 °C 1024.6 hPa ENE 9.3 km/h 9.3 km/h 76% 0.0 mm WeatherDisplay:10.37 W/m2 CLR
13:11 12.9 °C 8.6 °C 1024.6 hPa WNW 14.8 km/h 14.8 km/h 75% 0.0 mm WeatherDisplay:10.37 W/m2 CLR
13:16 13.0 °C 8.7 °C 1024.6 hPa NE 11.1 km/h 11.1 km/h 75% 0.0 mm WeatherDisplay:10.37 W/m2 CLR
13:21 13.0 °C 8.7 °C 1024.6 hPa North 14.8 km/h 14.8 km/h 75% 0.0 mm WeatherDisplay:10.37 W/m2 CLR
13:26 13.1 °C 8.8 °C 1024.6 hPa ENE 15.4 km/h 15.4 km/h 75% 0.0 mm WeatherDisplay:10.37 W/m2 CLR
13:31 13.1 °C 8.6 °C 1024.6 hPa NNE 16.7 km/h 16.7 km/h 74% 0.0 mm WeatherDisplay:10.37 W/m2 CLR
13:36 13.2 °C 8.7 °C 1024.6 hPa ENE 9.3 km/h 9.3 km/h 74% 0.0 mm WeatherDisplay:10.37 W/m2 CLR
13:41 13.3 °C 8.8 °C 1024.6 hPa NE 9.3 km/h 9.3 km/h 74% 0.0 mm WeatherDisplay:10.37 W/m2 CLR
13:46 13.4 °C 8.8 °C 1024.6 hPa NE 5.6 km/h 5.6 km/h 74% 0.0 mm WeatherDisplay:10.37 W/m2 CLR
13:51 13.4 °C 8.8 °C 1024.6 hPa ENE 14.8 km/h 14.8 km/h 74% 0.0 mm WeatherDisplay:10.37 W/m2 CLR
13:56 13.3 °C 8.6 °C 1024.6 hPa NE 9.3 km/h 9.3 km/h 73% 0.0 mm WeatherDisplay:10.37 W/m2 CLR
14:01 13.2 °C 8.4 °C 1024.6 hPa NE 9.3 km/h 9.3 km/h 73% 0.0 mm WeatherDisplay:10.37 W/m2 CLR
14:06 13.2 °C 8.7 °C 1024.6 hPa SSE 5.6 km/h 5.6 km/h 74% 0.0 mm WeatherDisplay:10.37 W/m2 CLR
14:11 13.2 °C 8.7 °C 1025.6 hPa NNW 16.7 km/h 16.7 km/h 74% 0.0 mm WeatherDisplay:10.37 W/m2 CLR
14:16 13.1 °C 8.8 °C 1025.6 hPa WNW 11.1 km/h 11.1 km/h 75% 0.0 mm WeatherDisplay:10.37 W/m2 CLR
14:21 13.0 °C 8.9 °C 1025.6 hPa NE 9.3 km/h 9.3 km/h 76% 0.0 mm WeatherDisplay:10.37 W/m2 CLR
14:26 13.1 °C 9.2 °C 1024.6 hPa Calm     77% 0.0 mm WeatherDisplay:10.37 W/m2 CLR
14:31 13.1 °C 9.2 °C 1024.6 hPa South 3.7 km/h   77% 0.0 mm WeatherDisplay:10.37 W/m2 CLR
14:36 13.1 °C 9.3 °C 1024.6 hPa NE 8.5 km/h 8.5 km/h 78% 0.0 mm WeatherDisplay:10.37 W/m2 CLR
14:41 13.1 °C 9.3 °C 1024.6 hPa NE 2.3 km/h   78% 0.0 mm WeatherDisplay:10.37 W/m2 CLR
14:46 13.1 °C 9.3 °C 1024.6 hPa North 13.0 km/h 13.0 km/h 78% 0.0 mm WeatherDisplay:10.37 W/m2 CLR
14:51 13.1 °C 9.3 °C 1024.6 hPa NNE 9.7 km/h 9.7 km/h 78% 0.0 mm WeatherDisplay:10.37 W/m2 CLR
14:56 13.1 °C 9.3 °C 1024.6 hPa ESE 14.8 km/h 14.8 km/h 78% 0.0 mm WeatherDisplay:10.37 W/m2 CLR
15:01 13.1 °C 9.3 °C 1024.6 hPa East 14.8 km/h 14.8 km/h 78% 0.0 mm WeatherDisplay:10.37 W/m2 CLR
15:06 13.1 °C 9.3 °C 1024.6 hPa ESE 11.1 km/h   78% 0.0 mm WeatherDisplay:10.37 W/m2 CLR
15:11 13.2 °C 9.4 °C 1024.6 hPa North 14.8 km/h 14.8 km/h 78% 0.0 mm WeatherDisplay:10.37 W/m2 CLR
15:16 13.2 °C 9.4 °C 1024.6 hPa NNW 13.0 km/h 13.0 km/h 78% 0.0 mm WeatherDisplay:10.37 W/m2 CLR
15:21 13.2 °C 9.4 °C 1024.6 hPa East 15.0 km/h 15.0 km/h 78% 0.0 mm WeatherDisplay:10.37 W/m2 CLR
15:26 13.2 °C 9.3 °C 1024.6 hPa NE 20.9 km/h 20.9 km/h 77% 0.0 mm WeatherDisplay:10.37 W/m2 CLR
15:31 13.2 °C 9.3 °C 1024.6 hPa ENE 11.9 km/h   77% 0.0 mm WeatherDisplay:10.37 W/m2 CLR
15:36 13.2 °C 8.9 °C 1024.6 hPa North 31.5 km/h 31.5 km/h 75% 0.0 mm WeatherDisplay:10.37 W/m2 CLR
15:41 13.3 °C 8.9 °C 1024.6 hPa NNE 20.4 km/h 20.4 km/h 75% 0.0 mm WeatherDisplay:10.37 W/m2 CLR
15:46 13.2 °C 8.9 °C 1024.6 hPa NE 14.8 km/h 14.8 km/h 75% 0.0 mm WeatherDisplay:10.37 W/m2 CLR
15:51 13.2 °C 8.9 °C 1024.6 hPa ENE 24.1 km/h 24.1 km/h 75% 0.0 mm WeatherDisplay:10.37 W/m2 CLR
15:56 13.3 °C 8.9 °C 1025.6 hPa NE 24.1 km/h 24.1 km/h 75% 0.0 mm WeatherDisplay:10.37 W/m2 CLR
16:01 13.3 °C 8.8 °C 1025.6 hPa NE 18.5 km/h 18.5 km/h 74% 0.0 mm WeatherDisplay:10.37 W/m2 CLR
16:02 13.3 °C 8.8 °C 1025.6 hPa NE 18.5 km/h 18.5 km/h 74% 0.0 mm WeatherDisplay:10.37 W/m2 CLR
16:07 13.3 °C 8.8 °C 1025.6 hPa East 14.0 km/h 14.0 km/h 74% 0.0 mm WeatherDisplay:10.37 W/m2 CLR
16:12 13.4 °C 8.8 °C 1025.6 hPa NE 14.8 km/h 14.8 km/h 74% 0.0 mm WeatherDisplay:10.37 W/m2 CLR
16:17 13.5 °C 9.2 °C 1025.6 hPa NE 23.2 km/h 23.2 km/h 75% 0.0 mm WeatherDisplay:10.37 W/m2 CLR
16:22 13.6 °C 9.1 °C 1025.6 hPa ENE 3.7 km/h   74% 0.0 mm WeatherDisplay:10.37 W/m2 CLR
16:24 13.6 °C 9.1 °C 1025.6 hPa NE 3.7 km/h 3.7 km/h 74% 0.0 mm WeatherDisplay:10.37 W/m2 CLR
16:29 13.7 °C 9.2 °C 1025.6 hPa NE 7.4 km/h 7.4 km/h 74% 0.0 mm WeatherDisplay:10.37 W/m2 CLR
16:34 13.7 °C 8.9 °C 1025.6 hPa SE 11.1 km/h   73% 0.0 mm WeatherDisplay:10.37 W/m2 CLR
16:39 13.7 °C 9.2 °C 1025.6 hPa NE 1.9 km/h 2.4 km/h 74% 0.0 mm WeatherDisplay:10.37 W/m2 CLR
16:44 13.6 °C 8.8 °C 1025.6 hPa NE 14.8 km/h 14.8 km/h 73% 0.0 mm WeatherDisplay:10.37 W/m2 CLR
16:49 13.6 °C 8.8 °C 1025.6 hPa West 14.8 km/h 14.8 km/h 73% 0.0 mm WeatherDisplay:10.37 W/m2 CLR
16:54 13.6 °C 8.7 °C 1025.6 hPa NNW 13.0 km/h 13.0 km/h 72% 0.0 mm WeatherDisplay:10.37 W/m2 CLR
16:59 13.5 °C 8.6 °C 1025.6 hPa NE 14.3 km/h 14.3 km/h 72% 0.0 mm WeatherDisplay:10.37 W/m2 CLR
17:04 13.5 °C 8.8 °C 1025.6 hPa North 1.9 km/h   73% 0.0 mm WeatherDisplay:10.37 W/m2 CLR
17:09 13.4 °C 8.7 °C 1025.6 hPa NE 14.8 km/h 14.8 km/h 73% 0.0 mm WeatherDisplay:10.37 W/m2 CLR
17:14 13.3 °C 8.6 °C 1025.6 hPa NNE 7.4 km/h 7.4 km/h 73% 0.0 mm WeatherDisplay:10.37 W/m2 CLR
17:19 13.2 °C 8.7 °C 1025.6 hPa ENE 16.7 km/h 16.7 km/h 74% 0.0 mm WeatherDisplay:10.37 W/m2 CLR
17:24 13.1 °C 8.6 °C 1025.6 hPa NNE 11.3 km/h 11.3 km/h 74% 0.0 mm WeatherDisplay:10.37 W/m2 CLR
17:29 13.0 °C 8.7 °C 1024.6 hPa NW 9.3 km/h 9.3 km/h 75% 0.0 mm WeatherDisplay:10.37 W/m2 CLR
17:34 13.0 °C 8.9 °C 1024.6 hPa NE 3.7 km/h 3.7 km/h 76% 0.0 mm WeatherDisplay:10.37 W/m2 CLR
17:39 12.9 °C 8.9 °C 1024.6 hPa NE 14.8 km/h 14.8 km/h 77% 1.0 mm WeatherDisplay:10.37 W/m2 RA
17:44 12.9 °C 8.9 °C 1025.6 hPa NW 9.3 km/h 9.3 km/h 77% 1.0 mm WeatherDisplay:10.37 W/m2 RA
17:49 12.8 °C 9.1 °C 1025.6 hPa NW 7.4 km/h 7.4 km/h 78% 1.0 mm WeatherDisplay:10.37 W/m2
17:54 12.7 °C 9.2 °C 1025.6 hPa ENE 5.6 km/h 5.6 km/h 79% 1.0 mm WeatherDisplay:10.37 W/m2 CLR
17:59 12.7 °C 9.3 °C 1024.6 hPa Calm     80% 1.0 mm WeatherDisplay:10.37 W/m2 CLR
18:04 12.7 °C 9.5 °C 1024.6 hPa NE 6.9 km/h   81% 1.0 mm WeatherDisplay:10.37 W/m2 CLR
18:09 12.7 °C 9.7 °C 1024.6 hPa ENE 7.4 km/h 7.4 km/h 82% 1.0 mm WeatherDisplay:10.37 W/m2 CLR
18:14 12.7 °C 9.7 °C 1025.6 hPa NE 7.4 km/h 7.4 km/h 82% 1.0 mm WeatherDisplay:10.37 W/m2 CLR
18:19 12.7 °C 9.7 °C 1025.6 hPa North 9.3 km/h 9.3 km/h 82% 1.0 mm WeatherDisplay:10.37 W/m2 CLR
18:24 12.7 °C 9.7 °C 1025.6 hPa NE 9.2 km/h 9.2 km/h 82% 1.0 mm WeatherDisplay:10.37 W/m2 CLR
18:29 12.7 °C 9.7 °C 1025.6 hPa NE 9.3 km/h 9.3 km/h 82% 1.0 mm WeatherDisplay:10.37 W/m2 CLR
18:34 12.6 °C 9.6 °C 1025.6 hPa NNE 5.6 km/h 5.6 km/h 82% 1.0 mm WeatherDisplay:10.37 W/m2 CLR
18:39 12.6 °C 9.6 °C 1025.6 hPa Calm   2.4 km/h 82% 0.0 mm WeatherDisplay:10.37 W/m2 CLR
18:44 12.6 °C 9.6 °C 1025.6 hPa NE 5.6 km/h   82% 0.0 mm WeatherDisplay:10.37 W/m2 CLR
18:49 12.6 °C 9.6 °C 1025.6 hPa NE 2.7 km/h   82% 0.0 mm WeatherDisplay:10.37 W/m2 CLR
18:54 12.6 °C 9.8 °C 1025.6 hPa Calm   2.4 km/h 83% 0.0 mm WeatherDisplay:10.37 W/m2 CLR
18:59 12.6 °C 9.8 °C 1025.6 hPa NE 9.3 km/h 11.6 km/h 83% 0.0 mm WeatherDisplay:10.37 W/m2 CLR
19:04 12.6 °C 9.8 °C 1025.6 hPa NE 13.0 km/h 13.0 km/h 83% 0.0 mm WeatherDisplay:10.37 W/m2 CLR
19:09 12.6 °C 9.8 °C 1025.6 hPa Calm     83% 0.0 mm WeatherDisplay:10.37 W/m2 CLR
19:14 12.5 °C 9.7 °C 1025.6 hPa ENE 7.4 km/h   83% 0.0 mm WeatherDisplay:10.37 W/m2 CLR
19:19 12.5 °C 9.7 °C 1025.6 hPa NE 7.4 km/h 7.4 km/h 83% 0.0 mm WeatherDisplay:10.37 W/m2 CLR
19:24 12.6 °C 9.9 °C 1026.6 hPa East 10.1 km/h 10.1 km/h 84% 0.0 mm WeatherDisplay:10.37 W/m2 CLR
19:29 12.6 °C 9.9 °C 1026.6 hPa SW 9.3 km/h   84% 0.0 mm WeatherDisplay:10.37 W/m2 CLR
19:34 12.6 °C 9.9 °C 1026.6 hPa NNW 8.5 km/h 8.5 km/h 84% 0.0 mm WeatherDisplay:10.37 W/m2 CLR
19:39 12.7 °C 10.1 °C 1026.6 hPa NE 15.4 km/h 15.4 km/h 84% 0.0 mm WeatherDisplay:10.37 W/m2 CLR
19:44 12.7 °C 10.1 °C 1026.6 hPa NE 7.4 km/h 7.4 km/h 84% 0.0 mm WeatherDisplay:10.37 W/m2 CLR
19:49 12.7 °C 10.1 °C 1026.6 hPa North 9.3 km/h 9.3 km/h 84% 0.0 mm WeatherDisplay:10.37 W/m2 CLR
19:54 12.7 °C 10.1 °C 1026.6 hPa North 13.5 km/h 13.5 km/h 84% 0.0 mm WeatherDisplay:10.37 W/m2 CLR
20:00 12.7 °C 10.1 °C 1026.6 hPa NE 15.4 km/h 15.4 km/h 84% 0.0 mm WeatherDisplay:10.37 W/m2 CLR
20:05 12.8 °C 9.8 °C 1026.6 hPa East 10.1 km/h 10.1 km/h 82% 0.0 mm WeatherDisplay:10.37 W/m2 CLR
20:10 12.8 °C 9.8 °C 1026.6 hPa East 13.0 km/h 13.0 km/h 82% 0.0 mm WeatherDisplay:10.37 W/m2 CLR
20:15 12.8 °C 9.6 °C 1026.6 hPa North 14.8 km/h 14.8 km/h 81% 0.0 mm WeatherDisplay:10.37 W/m2 CLR
20:20 12.8 °C 9.6 °C 1026.6 hPa ENE 9.3 km/h 9.3 km/h 81% 0.0 mm WeatherDisplay:10.37 W/m2 CLR
20:25 12.8 °C 9.6 °C 1026.6 hPa NNE 13.0 km/h 13.0 km/h 81% 0.0 mm WeatherDisplay:10.37 W/m2 CLR
20:30 12.8 °C 9.4 °C 1026.6 hPa NE 9.2 km/h 9.2 km/h 80% 0.0 mm WeatherDisplay:10.37 W/m2 CLR
20:35 12.8 °C 9.4 °C 1026.6 hPa ESE 18.5 km/h 18.5 km/h 80% 0.0 mm WeatherDisplay:10.37 W/m2 CLR
20:40 12.8 °C 9.4 °C 1025.6 hPa NNE 11.1 km/h 11.1 km/h 80% 0.0 mm WeatherDisplay:10.37 W/m2 CLR
20:46 12.8 °C 9.4 °C 1025.6 hPa ESE 11.1 km/h 11.1 km/h 80% 0.0 mm WeatherDisplay:10.37 W/m2 CLR
20:51 12.8 °C 9.4 °C 1025.6 hPa East 14.0 km/h 14.0 km/h 80% 0.0 mm WeatherDisplay:10.37 W/m2 CLR
20:56 12.8 °C 9.4 °C 1025.6 hPa ENE 10.1 km/h 10.1 km/h 80% 0.0 mm WeatherDisplay:10.37 W/m2 CLR
21:01 12.8 °C 9.2 °C 1025.6 hPa NE 7.4 km/h   79% 0.0 mm WeatherDisplay:10.37 W/m2 CLR
21:06 12.8 °C 9.2 °C 1025.6 hPa WNW 11.1 km/h 11.1 km/h 79% 0.0 mm WeatherDisplay:10.37 W/m2 CLR
21:11 12.8 °C 9.2 °C 1025.6 hPa NE 14.8 km/h 14.8 km/h 79% 0.0 mm WeatherDisplay:10.37 W/m2 CLR
21:16 12.8 °C 9.2 °C 1025.6 hPa NE 7.4 km/h 7.4 km/h 79% 0.0 mm WeatherDisplay:10.37 W/m2 CLR
21:21 12.8 °C 9.1 °C 1025.6 hPa NE 18.5 km/h 18.5 km/h 78% 0.0 mm WeatherDisplay:10.37 W/m2 CLR
21:26 12.8 °C 9.1 °C 1025.6 hPa NE 14.8 km/h   78% 0.0 mm WeatherDisplay:10.37 W/m2 CLR
21:31 12.8 °C 9.1 °C 1025.6 hPa ENE 14.8 km/h 14.8 km/h 78% 0.0 mm WeatherDisplay:10.37 W/m2 CLR
21:36 12.8 °C 8.9 °C 1025.6 hPa NW 15.0 km/h 15.0 km/h 77% 0.0 mm WeatherDisplay:10.37 W/m2 CLR
Bakkaano Camping, Sokndal
Compliments of Weather Underground - 2 mb